createdAt,value
2018-09-12T00:01:49.441Z,17.80
2018-09-12T00:04:17.618Z,17.80
2018-09-12T00:06:46.155Z,17.90
2018-09-12T00:09:14.350Z,17.90
2018-09-12T00:11:42.549Z,17.90
2018-09-12T00:14:11.096Z,18.00
2018-09-12T00:16:39.308Z,18.20
2018-09-12T00:19:07.802Z,18.30
2018-09-12T00:21:36.379Z,18.40
2018-09-12T00:24:04.615Z,18.50
2018-09-12T00:26:32.808Z,18.60
2018-09-12T00:29:01.181Z,18.60
2018-09-12T00:31:29.514Z,18.60
2018-09-12T00:33:57.766Z,18.70
2018-09-12T00:36:26.066Z,18.70
2018-09-12T00:38:54.296Z,18.70
2018-09-12T00:41:22.591Z,18.60
2018-09-12T00:43:50.930Z,18.50
2018-09-12T00:46:19.146Z,18.50
2018-09-12T00:48:47.406Z,18.40
2018-09-12T00:51:15.682Z,18.40
2018-09-12T00:53:44.033Z,18.40
2018-09-12T00:56:12.510Z,18.50
2018-09-12T00:58:41.595Z,18.50
2018-09-12T01:01:09.919Z,18.50
2018-09-12T01:03:38.362Z,18.40
2018-09-12T01:06:07.218Z,18.50
2018-09-12T01:08:35.459Z,18.40
2018-09-12T01:11:03.634Z,18.40
2018-09-12T01:13:31.908Z,18.40
2018-09-12T01:16:00.174Z,18.40
2018-09-12T01:18:29.458Z,18.40
2018-09-12T01:20:57.979Z,18.30
2018-09-12T01:23:26.348Z,18.20
2018-09-12T01:25:54.660Z,18.30
2018-09-12T01:28:22.914Z,18.20
2018-09-12T01:30:51.399Z,18.30
2018-09-12T01:33:19.703Z,18.30
2018-09-12T01:35:47.902Z,18.20
2018-09-12T01:38:16.123Z,18.30
2018-09-12T01:40:45.263Z,18.30
2018-09-12T01:43:13.490Z,18.30
2018-09-12T01:45:41.703Z,18.30
2018-09-12T01:48:09.928Z,18.40
2018-09-12T01:50:38.148Z,18.30
2018-09-12T01:53:06.366Z,18.20
2018-09-12T01:55:34.637Z,18.20
2018-09-12T01:58:02.839Z,18.10
2018-09-12T02:00:36.414Z,18.10
2018-09-12T02:03:05.619Z,18.10
2018-09-12T02:05:34.126Z,18.00
2018-09-12T02:08:02.332Z,18.00
2018-09-12T02:10:30.556Z,18.00
2018-09-12T02:12:59.067Z,18.00
2018-09-12T02:15:27.271Z,18.00
2018-09-12T02:17:55.551Z,18.00
2018-09-12T02:20:23.751Z,17.90
2018-09-12T02:22:51.931Z,17.90
2018-09-12T02:25:20.559Z,17.80
2018-09-12T02:32:41.497Z,17.70
2018-09-12T02:35:10.020Z,17.70
2018-09-12T02:37:38.213Z,17.70
2018-09-12T02:40:07.197Z,17.70
2018-09-12T02:42:36.254Z,17.70
2018-09-12T02:45:05.239Z,17.70
2018-09-12T02:47:38.377Z,17.70
2018-09-12T02:50:09.830Z,17.60
2018-09-12T02:52:38.283Z,17.60
2018-09-12T02:55:07.610Z,17.50
2018-09-12T02:57:35.862Z,17.50
2018-09-12T03:00:04.385Z,17.50
2018-09-12T03:02:33.064Z,17.50
2018-09-12T03:05:01.538Z,17.40
2018-09-12T03:07:29.819Z,17.40
2018-09-12T03:09:58.491Z,17.40
2018-09-12T03:12:26.718Z,17.30
2018-09-12T03:14:54.911Z,17.30
2018-09-12T03:17:23.411Z,17.40
2018-09-12T03:19:51.817Z,17.30
2018-09-12T03:22:20.110Z,17.30
2018-09-12T03:24:48.411Z,17.30
2018-09-12T03:27:16.678Z,17.30
2018-09-12T03:29:44.908Z,17.30
2018-09-12T03:37:08.729Z,17.30
2018-09-12T03:39:37.002Z,17.30
2018-09-12T03:42:05.303Z,17.20
2018-09-12T03:44:33.595Z,17.20
2018-09-12T03:47:01.806Z,17.20
2018-09-12T03:54:23.448Z,17.20
2018-09-12T03:56:51.607Z,17.50
2018-09-12T03:59:19.789Z,17.20
2018-09-12T04:01:48.106Z,17.20
2018-09-12T04:04:16.493Z,17.20
2018-09-12T04:06:44.781Z,17.20
2018-09-12T04:09:13.054Z,17.20
2018-09-12T04:11:41.304Z,17.20
2018-09-12T04:14:09.537Z,17.20
2018-09-12T04:16:37.869Z,17.30
2018-09-12T04:19:06.239Z,17.30
2018-09-12T04:21:34.628Z,17.30
2018-09-12T04:24:02.811Z,17.40
2018-09-12T04:26:31.110Z,17.40
2018-09-12T04:28:59.339Z,17.30
2018-09-12T04:31:28.665Z,17.30
2018-09-12T04:33:57.145Z,17.30
2018-09-12T04:36:25.417Z,17.30
2018-09-12T04:38:53.709Z,17.30
2018-09-12T04:41:22.300Z,17.30
2018-09-12T04:43:50.559Z,17.30
2018-09-12T04:46:19.074Z,17.30
2018-09-12T04:48:47.335Z,17.30
2018-09-12T04:51:15.675Z,17.30
2018-09-12T04:53:44.336Z,17.20
2018-09-12T04:56:12.591Z,17.20
2018-09-12T04:58:40.799Z,17.20
2018-09-12T05:01:08.994Z,17.10
2018-09-12T05:03:37.183Z,17.20
2018-09-12T05:06:05.402Z,17.20
2018-09-12T05:08:34.041Z,17.10
2018-09-12T05:11:02.334Z,17.10
2018-09-12T05:13:30.581Z,17.00
2018-09-12T05:15:58.857Z,17.00
2018-09-12T05:18:27.150Z,17.00
2018-09-12T05:20:55.346Z,16.90
2018-09-12T05:23:23.809Z,16.80
2018-09-12T05:25:52.155Z,16.80
2018-09-12T05:28:20.358Z,16.80
2018-09-12T05:30:48.585Z,16.80
2018-09-12T05:33:16.800Z,16.70
2018-09-12T05:35:45.068Z,16.70
2018-09-12T05:38:13.273Z,16.70
2018-09-12T05:40:41.490Z,16.80
2018-09-12T05:43:10.774Z,16.80
2018-09-12T05:45:38.996Z,16.80
2018-09-12T05:48:08.837Z,16.80
2018-09-12T05:50:37.126Z,16.90
2018-09-12T05:53:05.343Z,17.00
2018-09-12T05:55:33.722Z,17.20
2018-09-12T05:58:01.936Z,17.30
2018-09-12T06:00:30.109Z,17.40
2018-09-12T06:02:58.351Z,17.50
2018-09-12T06:05:26.738Z,17.60
2018-09-12T06:07:55.059Z,17.70
2018-09-12T06:15:17.118Z,17.90
2018-09-12T06:17:45.364Z,18.00
2018-09-12T06:20:13.572Z,18.10
2018-09-12T06:22:41.836Z,18.20
2018-09-12T06:25:10.041Z,18.30
2018-09-12T06:32:32.141Z,18.50
2018-09-12T06:35:00.966Z,18.70
2018-09-12T06:37:29.549Z,18.80
2018-09-12T06:39:57.870Z,18.80
2018-09-12T06:42:26.100Z,19.00
2018-09-12T06:49:49.407Z,19.10
2018-09-12T06:52:19.222Z,19.20
2018-09-12T06:54:47.451Z,19.30
2018-09-12T06:57:15.643Z,19.40
2018-09-12T06:59:44.221Z,19.40
2018-09-12T07:02:12.445Z,19.50
2018-09-12T07:04:40.679Z,19.60
2018-09-12T07:07:08.878Z,19.80
2018-09-12T07:09:37.064Z,20.00
2018-09-12T07:12:05.304Z,20.40
2018-09-12T07:14:33.634Z,20.70
2018-09-12T07:17:01.912Z,20.80
2018-09-12T07:19:30.103Z,20.60
2018-09-12T07:21:58.337Z,20.50
2018-09-12T07:24:26.664Z,20.40
2018-09-12T07:26:54.879Z,20.40
2018-09-12T07:29:23.156Z,20.40
2018-09-12T07:31:51.618Z,20.60
2018-09-12T07:34:19.851Z,20.80
2018-09-12T07:36:48.277Z,21.00
2018-09-12T07:39:16.545Z,21.40
2018-09-12T07:46:38.135Z,23.60
2018-09-12T07:49:07.555Z,23.50
2018-09-12T07:51:35.746Z,23.00
2018-09-12T07:54:03.956Z,22.60
2018-09-12T07:56:32.230Z,22.20
2018-09-12T07:59:01.377Z,22.00
2018-09-12T08:01:30.191Z,22.00
2018-09-12T08:03:58.455Z,21.90
2018-09-12T08:06:26.689Z,21.90
2018-09-12T08:08:54.989Z,22.30
2018-09-12T08:11:23.462Z,22.50
2018-09-12T08:13:51.671Z,23.00
2018-09-12T08:16:19.917Z,23.00
2018-09-12T08:18:48.174Z,22.60
2018-09-12T08:21:16.707Z,22.50
2018-09-12T08:23:44.934Z,22.30
2018-09-12T08:26:13.280Z,22.70
2018-09-12T08:28:41.506Z,24.70
2018-09-12T08:31:09.656Z,24.70
2018-09-12T08:33:37.882Z,24.10
2018-09-12T08:36:06.250Z,24.80
2018-09-12T08:38:35.263Z,26.20
2018-09-12T08:41:03.449Z,27.50
2018-09-12T08:43:31.776Z,27.80
2018-09-12T08:46:00.060Z,28.10
2018-09-12T08:48:28.248Z,28.10
2018-09-12T08:50:56.560Z,29.00
2018-09-12T08:53:24.744Z,29.40
2018-09-12T08:55:53.001Z,28.50
2018-09-12T08:58:21.202Z,28.90
2018-09-12T09:00:49.399Z,29.30
2018-09-12T09:03:17.626Z,29.70
2018-09-12T09:05:45.960Z,30.70
2018-09-12T09:08:14.249Z,30.10
2018-09-12T09:10:42.456Z,30.60
2018-09-12T09:13:10.578Z,30.00
2018-09-12T09:15:38.862Z,30.40
2018-09-12T09:18:07.999Z,30.60
2018-09-12T09:20:36.217Z,31.00
2018-09-12T09:23:04.485Z,31.20
2018-09-12T09:25:32.699Z,31.10
2018-09-12T09:28:00.865Z,30.90
2018-09-12T09:30:30.604Z,31.10
2018-09-12T09:32:58.814Z,32.40
2018-09-12T09:35:27.061Z,31.90
2018-09-12T09:37:55.350Z,31.50
2018-09-12T09:40:23.539Z,31.20
2018-09-12T09:42:51.899Z,31.70
2018-09-12T09:45:20.063Z,30.70
2018-09-12T09:47:48.310Z,30.80
2018-09-12T09:50:16.418Z,30.60
2018-09-12T09:52:44.645Z,31.00
2018-09-12T09:55:12.829Z,31.10
2018-09-12T09:57:41.129Z,30.60
2018-09-12T10:00:15.467Z,30.70
2018-09-12T10:07:46.928Z,31.10
2018-09-12T10:10:15.272Z,30.30
2018-09-12T10:12:43.422Z,29.80
2018-09-12T10:15:11.689Z,30.00
2018-09-12T10:17:39.923Z,30.00
2018-09-12T10:20:08.059Z,29.30
2018-09-12T10:22:36.245Z,28.00
2018-09-12T10:25:04.664Z,27.50
2018-09-12T10:27:33.505Z,27.00
2018-09-12T10:30:03.070Z,26.70
2018-09-12T10:32:31.250Z,26.40
2018-09-12T10:34:59.479Z,26.30
2018-09-12T10:37:27.696Z,26.10
2018-09-12T10:39:56.013Z,25.80
2018-09-12T10:42:24.671Z,25.80
2018-09-12T10:44:52.900Z,25.50
2018-09-12T10:47:25.070Z,25.30
2018-09-12T10:49:53.553Z,25.20
2018-09-12T10:52:22.994Z,24.70
2018-09-12T10:54:51.242Z,24.50
2018-09-12T10:57:19.547Z,24.50
2018-09-12T10:59:47.881Z,24.30
2018-09-12T11:02:16.326Z,24.70
2018-09-12T11:04:44.741Z,24.80
2018-09-12T11:07:12.966Z,24.60
2018-09-12T11:09:41.224Z,24.30
2018-09-12T11:12:09.579Z,24.30
2018-09-12T11:14:38.489Z,24.50
2018-09-12T11:17:06.710Z,25.10
2018-09-12T11:19:35.008Z,25.60
2018-09-12T11:22:03.247Z,25.90
2018-09-12T11:24:31.496Z,25.90
2018-09-12T11:26:59.809Z,26.10
2018-09-12T11:29:28.035Z,25.70
2018-09-12T11:31:56.238Z,25.50
2018-09-12T11:34:24.851Z,25.70
2018-09-12T11:36:52.946Z,26.00
2018-09-12T11:39:21.204Z,26.10
2018-09-12T11:41:49.629Z,25.60
2018-09-12T11:44:17.975Z,25.30
2018-09-12T11:46:46.317Z,25.60
2018-09-12T11:49:14.495Z,25.80
2018-09-12T11:51:42.670Z,26.00
2018-09-12T11:54:11.862Z,25.70
2018-09-12T11:56:40.100Z,25.60
2018-09-12T11:59:08.543Z,25.80
2018-09-12T12:01:36.812Z,25.70
2018-09-12T12:04:04.977Z,25.90
2018-09-12T12:06:33.181Z,25.60
2018-09-12T12:09:01.338Z,25.30
2018-09-12T12:11:31.574Z,25.20
2018-09-12T12:13:59.940Z,25.10
2018-09-12T12:16:29.245Z,24.90
2018-09-12T12:18:57.442Z,24.70
2018-09-12T12:21:25.637Z,24.60
2018-09-12T12:23:53.875Z,24.80
2018-09-12T12:26:22.276Z,24.90
2018-09-12T12:28:50.454Z,25.10
2018-09-12T12:31:18.633Z,25.20
2018-09-12T12:33:46.834Z,25.50
2018-09-12T12:36:15.022Z,25.70
2018-09-12T12:38:43.434Z,25.60
2018-09-12T12:41:11.769Z,24.90
2018-09-12T12:43:40.086Z,24.30
2018-09-12T12:46:08.341Z,23.90
2018-09-12T12:48:36.653Z,23.40
2018-09-12T12:51:05.043Z,23.00
2018-09-12T12:53:34.290Z,22.70
2018-09-12T12:56:03.240Z,22.50
2018-09-12T12:58:31.467Z,22.60
2018-09-12T13:00:59.722Z,22.40
2018-09-12T13:03:28.229Z,22.20
2018-09-12T13:05:56.489Z,22.10
2018-09-12T13:08:24.669Z,22.00
2018-09-12T13:10:52.898Z,22.00
2018-09-12T13:13:21.126Z,22.00
2018-09-12T13:15:49.416Z,21.90
2018-09-12T13:18:17.647Z,21.90
2018-09-12T13:20:45.890Z,21.70
2018-09-12T13:23:14.141Z,21.50
2018-09-12T13:25:42.491Z,21.40
2018-09-12T13:28:10.922Z,21.30
2018-09-12T13:30:39.205Z,21.40
2018-09-12T13:33:07.455Z,21.30
2018-09-12T13:40:29.801Z,21.40
2018-09-12T13:42:58.040Z,21.70
2018-09-12T13:45:26.219Z,21.70
2018-09-12T13:47:54.394Z,21.70
2018-09-12T13:50:22.778Z,21.60
2018-09-12T13:52:50.999Z,21.40
2018-09-12T13:55:19.284Z,21.20
2018-09-12T13:57:47.447Z,20.90
2018-09-12T14:00:15.687Z,20.80
2018-09-12T14:02:43.957Z,20.60
2018-09-12T14:05:12.251Z,20.40
2018-09-12T14:07:40.468Z,20.30
2018-09-12T14:10:08.656Z,20.10
2018-09-12T14:12:36.890Z,19.90
2018-09-12T14:15:05.986Z,19.80
2018-09-12T14:17:34.188Z,19.80
2018-09-12T14:20:02.482Z,19.80
2018-09-12T14:22:30.709Z,18.70
2018-09-12T14:24:59.057Z,19.40
2018-09-12T14:27:27.231Z,19.40
2018-09-12T14:29:55.637Z,19.30
2018-09-12T14:32:23.926Z,19.30
2018-09-12T14:34:52.134Z,19.50
2018-09-12T14:37:20.486Z,19.50
2018-09-12T14:39:48.773Z,19.40
2018-09-12T14:42:17.183Z,19.30
2018-09-12T14:44:45.804Z,19.20
2018-09-12T14:47:14.673Z,19.10
2018-09-12T14:49:43.003Z,18.80
2018-09-12T14:52:15.691Z,18.70
2018-09-12T14:54:43.934Z,18.50
2018-09-12T14:57:12.136Z,18.40
2018-09-12T14:59:41.399Z,18.30
2018-09-12T15:02:09.754Z,18.20
2018-09-12T15:04:38.159Z,18.00
2018-09-12T15:07:06.419Z,18.00
2018-09-12T15:09:34.610Z,18.00
2018-09-12T15:12:02.972Z,18.00
2018-09-12T15:14:31.232Z,17.90
2018-09-12T15:16:59.503Z,17.70
2018-09-12T15:19:27.738Z,17.70
2018-09-12T15:21:56.950Z,18.00
2018-09-12T15:24:25.268Z,17.90
2018-09-12T15:26:54.911Z,17.70
2018-09-12T15:29:23.109Z,17.60
2018-09-12T15:31:51.350Z,17.60
2018-09-12T15:34:19.653Z,17.50
2018-09-12T15:36:48.066Z,17.50
2018-09-12T15:39:16.770Z,17.50
2018-09-12T15:41:44.984Z,17.40
2018-09-12T15:45:14.626Z,17.40
2018-09-12T15:47:42.815Z,17.40
2018-09-12T15:50:10.998Z,17.30
2018-09-12T15:52:39.544Z,17.30
2018-09-12T15:55:07.781Z,17.20
2018-09-12T15:57:37.254Z,17.20
2018-09-12T16:00:05.513Z,17.20
2018-09-12T16:02:33.735Z,17.30
2018-09-12T16:05:02.044Z,17.30
2018-09-12T16:07:30.224Z,17.30
2018-09-12T16:09:58.499Z,17.10
2018-09-12T16:12:26.838Z,17.10
2018-09-12T16:14:55.005Z,17.10
2018-09-12T16:17:23.279Z,17.00
2018-09-12T16:19:51.498Z,17.00
2018-09-12T16:22:20.715Z,17.00
2018-09-12T16:25:15.487Z,16.90
2018-09-12T16:27:44.002Z,16.80
2018-09-12T16:30:12.690Z,16.80
2018-09-12T16:32:40.961Z,16.90
2018-09-12T16:35:09.087Z,16.80
2018-09-12T16:37:37.285Z,16.80
2018-09-12T16:40:05.498Z,16.80
2018-09-12T16:42:34.730Z,16.70
2018-09-12T16:49:55.847Z,16.60
2018-09-12T16:52:24.010Z,16.60
2018-09-12T16:54:52.201Z,16.50
2018-09-12T16:57:20.407Z,16.50
2018-09-12T16:59:48.654Z,16.50
2018-09-12T17:07:09.670Z,16.40
2018-09-12T17:09:37.921Z,16.20
2018-09-12T17:12:06.159Z,16.20
2018-09-12T17:14:34.337Z,16.30
2018-09-12T17:17:02.609Z,16.30
2018-09-12T17:24:23.783Z,16.30
2018-09-12T17:26:52.141Z,16.00
2018-09-12T17:29:20.363Z,15.90
2018-09-12T17:31:48.520Z,15.90
2018-09-12T17:34:16.864Z,15.90
2018-09-12T17:36:46.344Z,15.90
2018-09-12T17:39:14.760Z,15.90
2018-09-12T17:41:43.003Z,15.90
2018-09-12T17:44:11.174Z,15.80
2018-09-12T17:46:39.359Z,15.70
2018-09-12T17:49:07.570Z,15.80
2018-09-12T17:51:35.770Z,15.70
2018-09-12T17:54:03.957Z,15.70
2018-09-12T17:56:32.274Z,15.70
2018-09-12T17:59:00.469Z,15.70
2018-09-12T18:01:28.689Z,15.70
2018-09-12T18:03:56.879Z,15.60
2018-09-12T18:06:25.209Z,15.60
2018-09-12T18:08:53.727Z,15.70
2018-09-12T18:11:22.214Z,15.70
2018-09-12T18:13:50.707Z,15.70
2018-09-12T18:16:19.224Z,15.60
2018-09-12T18:18:47.811Z,15.70
2018-09-12T18:21:16.544Z,15.70
2018-09-12T18:23:45.038Z,15.60
2018-09-12T18:26:13.307Z,15.60
2018-09-12T18:28:41.483Z,15.60
2018-09-12T18:31:09.828Z,15.60
2018-09-12T18:33:38.003Z,15.50
2018-09-12T18:36:06.290Z,15.50
2018-09-12T18:38:34.506Z,15.50
2018-09-12T18:41:02.809Z,15.50
2018-09-12T18:43:31.135Z,15.50
2018-09-12T18:45:59.377Z,15.50
2018-09-12T18:48:28.243Z,15.40
2018-09-12T18:50:56.436Z,15.40
2018-09-12T18:53:25.226Z,15.40
2018-09-12T18:55:54.557Z,15.40
2018-09-12T18:58:22.760Z,15.40
2018-09-12T19:00:50.924Z,15.40
2018-09-12T19:03:19.170Z,15.50
2018-09-12T19:05:47.452Z,15.50
2018-09-12T19:08:15.702Z,15.50
2018-09-12T19:10:43.890Z,15.60
2018-09-12T19:13:12.244Z,15.50
2018-09-12T19:15:40.505Z,15.40
2018-09-12T19:18:08.786Z,15.40
2018-09-12T19:20:50.971Z,15.50
2018-09-12T19:23:21.341Z,15.50
2018-09-12T19:25:51.070Z,15.50
2018-09-12T19:28:22.140Z,15.50
2018-09-12T19:30:51.358Z,15.40
2018-09-12T19:33:19.873Z,15.50
2018-09-12T19:35:48.391Z,15.50
2018-09-12T19:38:17.546Z,15.50
2018-09-12T19:40:45.881Z,15.50
2018-09-12T19:43:18.919Z,15.50
2018-09-12T19:45:51.532Z,15.50
2018-09-12T19:48:21.523Z,15.50
2018-09-12T19:50:51.861Z,15.40
2018-09-12T19:53:22.616Z,15.40
2018-09-12T19:55:55.786Z,15.50
2018-09-12T19:58:25.381Z,15.50
2018-09-12T20:00:59.326Z,15.40
2018-09-12T20:03:31.913Z,15.50
2018-09-12T20:06:05.135Z,15.50
2018-09-12T20:08:36.083Z,15.50
2018-09-12T20:11:06.362Z,15.50
2018-09-12T20:13:40.804Z,15.50
2018-09-12T20:16:11.286Z,15.50
2018-09-12T20:18:41.335Z,15.40
2018-09-12T20:26:06.911Z,15.40
2018-09-12T20:28:41.943Z,15.40
2018-09-12T20:31:13.626Z,15.40
2018-09-12T20:33:46.059Z,15.30
2018-09-12T20:36:17.209Z,15.30
2018-09-12T20:38:48.094Z,15.40
2018-09-12T20:41:21.177Z,15.50
2018-09-12T20:43:49.606Z,15.50
2018-09-12T20:46:18.126Z,15.40
2018-09-12T20:48:47.304Z,15.40
2018-09-12T20:51:15.722Z,15.50
2018-09-12T20:53:44.337Z,15.50
2018-09-12T20:56:12.597Z,15.50
2018-09-12T20:58:42.539Z,15.50
2018-09-12T21:01:11.021Z,15.40
2018-09-12T21:03:39.951Z,15.40
2018-09-12T21:06:08.532Z,15.40
2018-09-12T21:08:36.852Z,15.30
2018-09-12T21:11:05.401Z,15.30
2018-09-12T21:13:34.257Z,15.30
2018-09-12T21:16:02.726Z,15.30
2018-09-12T21:18:31.079Z,15.30
2018-09-12T21:21:00.051Z,15.30
2018-09-12T21:23:28.387Z,15.30
2018-09-12T21:25:57.634Z,15.20
2018-09-12T21:28:26.211Z,15.10
2018-09-12T21:30:55.097Z,15.10
2018-09-12T21:33:31.948Z,15.20
2018-09-12T21:36:01.697Z,15.20
2018-09-12T21:38:31.393Z,15.20
2018-09-12T21:40:59.742Z,15.20
2018-09-12T21:43:29.324Z,15.20
2018-09-12T21:45:57.797Z,15.20
2018-09-12T21:48:26.408Z,15.20
2018-09-12T21:50:54.916Z,15.20
2018-09-12T21:53:24.103Z,15.30
2018-09-12T21:55:54.769Z,15.30
2018-09-12T21:58:24.154Z,15.30
2018-09-12T22:00:52.825Z,15.30
2018-09-12T22:03:21.393Z,15.40
2018-09-12T22:05:50.708Z,15.40
2018-09-12T22:08:20.232Z,15.40
2018-09-12T22:10:51.008Z,15.30
2018-09-12T22:13:19.500Z,15.30
2018-09-12T22:15:48.254Z,15.30
2018-09-12T22:18:16.814Z,15.20
2018-09-12T22:20:45.118Z,15.30
2018-09-12T22:23:13.362Z,15.20
2018-09-12T22:25:41.827Z,15.30
2018-09-12T22:28:10.090Z,15.30
2018-09-12T22:30:38.692Z,15.30
2018-09-12T22:33:07.064Z,15.20
2018-09-12T22:35:35.418Z,15.10
2018-09-12T22:38:03.757Z,15.20
2018-09-12T22:40:32.458Z,15.20
2018-09-12T22:43:01.618Z,15.20
2018-09-12T22:45:30.161Z,15.10
2018-09-12T22:48:01.338Z,15.10
2018-09-12T22:50:29.914Z,15.10
2018-09-12T22:52:58.285Z,15.10
2018-09-12T22:55:26.519Z,15.00
2018-09-12T22:57:54.731Z,15.00
2018-09-12T23:00:23.072Z,15.00
2018-09-12T23:02:51.356Z,15.00
2018-09-12T23:05:20.878Z,15.00
2018-09-12T23:07:49.270Z,15.00
2018-09-12T23:10:17.586Z,15.00
2018-09-12T23:12:46.096Z,15.00
2018-09-12T23:15:14.396Z,15.00
2018-09-12T23:17:42.672Z,14.90
2018-09-12T23:20:10.969Z,14.90
2018-09-12T23:22:39.193Z,14.90
2018-09-12T23:25:07.727Z,14.90
2018-09-12T23:27:37.492Z,14.90
2018-09-12T23:30:05.810Z,14.90
2018-09-12T23:32:34.044Z,14.90
2018-09-12T23:35:02.265Z,14.90
2018-09-12T23:37:30.697Z,14.90
2018-09-12T23:39:59.157Z,14.90
2018-09-12T23:42:27.425Z,14.90
2018-09-12T23:44:55.653Z,14.90
2018-09-12T23:47:23.891Z,14.90
2018-09-12T23:54:52.386Z,14.90
2018-09-12T23:57:20.641Z,14.80
2018-09-12T23:59:48.880Z,14.80
